This is the latest recevied weather packets stored in our database for station/object KD4MBW. If no packets are shown the sender has not sent any weather packets the latest 10 day(s).
| Time | Temp. | Humidity | Pressure | Rain* | Wind** | Luminosity | Snow |
|---|---|---|---|---|---|---|---|
| 1787670145 | 29.44° C | 78% | 1017.9 hPa | 0 mm | - | 565 W/m² | - |
| 1787669844 | 30° C | 77% | 1017.6 hPa | 0 mm | - | 554 W/m² | - |
| 1787669540 | 30° C | 76% | 1017.6 hPa | 0 mm | - | 538 W/m² | - |
| 1787669235 | 30° C | 79% | 1017.6 hPa | 0 mm | - | 525 W/m² | - |
| 1787668931 | 29.44° C | 79% | 1017.7 hPa | 0 mm | - | 508 W/m² | - |
| 1787668628 | 30° C | 79% | 1017.4 hPa | 0 mm | - | 496 W/m² | - |
| 1787668323 | 28.89° C | 80% | 1017.7 hPa | 0 mm | - | 482 W/m² | - |
| 1787668023 | 28.33° C | 83% | 1017.7 hPa | 0 mm | - | 471 W/m² | - |
| 1787667718 | 29.44° C | 80% | 1017.8 hPa | 0 mm | - | 453 W/m² | - |
| 1787667414 | 30° C | 77% | 1017.9 hPa | 0 mm | - | 458 W/m² | - |
| 1787667109 | 28.33° C | 81% | 1017.9 hPa | 0 mm | - | 452 W/m² | - |
| 1787666799 | 28.33° C | 82% | 1017.7 hPa | 0 mm | - | 435 W/m² | - |
| 1787666499 | 27.78° C | 85% | 1017.7 hPa | 0 mm | - | 448 W/m² | - |
| 1787666193 | 27.22° C | 87% | 1017.8 hPa | 0 mm | - | 256 W/m² | - |
| 1787665884 | 27.22° C | 88% | 1017.6 hPa | 0 mm | - | 198 W/m² | - |
| 1787665579 | 27.22° C | 88% | 1017.5 hPa | 0 mm | - | 197 W/m² | - |
| 1787665279 | 26.67° C | 89% | 1017.5 hPa | 0 mm | - | 390 W/m² | - |
| 1787664976 | 26.11° C | 94% | 1017.5 hPa | 0 mm | - | 330 W/m² | - |
| 1787664672 | 25.56° C | 93% | 1017.6 hPa | 0 mm | - | 158 W/m² | - |
| 1787664372 | 25.56° C | 94% | 1017.6 hPa | 0 mm | - | 144 W/m² | - |
| 1787664072 | 25.56° C | 94% | 1017.4 hPa | 0 mm | - | 133 W/m² | - |
| 1787663761 | 25.56° C | 94% | 1017.3 hPa | 0 mm | - | 179 W/m² | - |
| 1787663456 | 25.56° C | 94% | 1017.3 hPa | 0 mm | - | 113 W/m² | - |
| 1787663152 | 25.56° C | 94% | 1017.3 hPa | 0 mm | - | 96 W/m² | - |
| 1787662847 | 25.56° C | 93% | 1017.2 hPa | 0 mm | - | 103 W/m² | - |
* Rain latest hour (hover to see other rain measurements)
** Current wind speed in m/s (hover to see current wind gust speed)